createdAt,value
2024-01-12T00:00:39.938Z,2.10
2024-01-12T00:01:44.046Z,2.11
2024-01-12T00:02:53.571Z,2.12
2024-01-12T00:03:58.098Z,2.12
2024-01-12T00:05:09.566Z,2.12
2024-01-12T00:06:13.991Z,2.11
2024-01-12T00:07:19.934Z,2.10
2024-01-12T00:08:24.246Z,2.11
2024-01-12T00:09:28.652Z,2.10
2024-01-12T00:10:36.100Z,2.13
2024-01-12T00:11:43.285Z,2.14
2024-01-12T00:12:52.686Z,2.13
2024-01-12T00:13:57.000Z,2.12
2024-01-12T00:15:10.136Z,2.13
2024-01-12T00:16:16.548Z,2.14
2024-01-12T00:17:23.403Z,2.14
2024-01-12T00:18:33.077Z,2.15
2024-01-12T00:19:39.902Z,2.18
2024-01-12T00:20:45.535Z,2.19
2024-01-12T00:21:54.237Z,2.20
2024-01-12T00:22:58.957Z,2.20
2024-01-12T00:24:05.826Z,2.19
2024-01-12T00:25:10.515Z,2.15
2024-01-12T00:26:17.746Z,2.15
2024-01-12T00:27:21.955Z,2.14
2024-01-12T00:28:29.846Z,2.16
2024-01-12T00:29:34.072Z,2.15
2024-01-12T00:30:43.469Z,2.16
2024-01-12T00:31:49.276Z,2.15
2024-01-12T00:32:55.220Z,2.16
2024-01-12T00:34:07.105Z,2.15
2024-01-12T00:35:14.000Z,2.13
2024-01-12T00:36:18.293Z,2.12
2024-01-12T00:37:27.690Z,2.09
2024-01-12T00:38:32.155Z,2.05
2024-01-12T00:39:39.470Z,2.02
2024-01-12T00:40:44.396Z,2.00
2024-01-12T00:41:52.380Z,1.98
2024-01-12T00:42:57.010Z,1.96
2024-01-12T00:44:05.809Z,1.96
2024-01-12T00:45:10.996Z,1.96
2024-01-12T00:46:20.418Z,1.95
2024-01-12T00:47:24.984Z,1.95
2024-01-12T00:48:34.325Z,1.96
2024-01-12T00:49:41.518Z,1.96
2024-01-12T00:50:49.265Z,1.96
2024-01-12T00:51:53.614Z,1.98
2024-01-12T00:53:00.601Z,2.00
2024-01-12T00:54:05.931Z,2.02
2024-01-12T00:55:15.240Z,2.02
2024-01-12T00:56:21.802Z,2.05
2024-01-12T00:57:27.809Z,2.06
2024-01-12T00:58:32.343Z,2.06
2024-01-12T00:59:39.320Z,2.07
2024-01-12T01:00:43.534Z,2.05
2024-01-12T01:01:52.716Z,2.04
2024-01-12T01:02:57.239Z,2.06
2024-01-12T01:04:08.832Z,2.07
2024-01-12T01:05:15.144Z,2.06
2024-01-12T01:06:21.970Z,2.07
2024-01-12T01:07:26.252Z,2.08
2024-01-12T01:08:34.485Z,2.10
2024-01-12T01:09:40.573Z,2.12
2024-01-12T01:10:48.175Z,2.13
2024-01-12T01:11:54.423Z,2.14
2024-01-12T01:12:58.698Z,2.13
2024-01-12T01:14:05.486Z,2.13
2024-01-12T01:15:11.103Z,2.13
2024-01-12T01:16:17.934Z,2.14
2024-01-12T01:17:22.131Z,2.15
2024-01-12T01:18:34.860Z,2.14
2024-01-12T01:19:42.279Z,2.15
2024-01-12T01:20:51.879Z,2.16
2024-01-12T01:21:56.056Z,2.17
2024-01-12T01:23:01.964Z,2.17
2024-01-12T01:24:06.497Z,2.18
2024-01-12T01:25:13.405Z,2.15
2024-01-12T01:26:19.845Z,2.11
2024-01-12T01:27:26.675Z,2.09
2024-01-12T01:28:30.851Z,2.03
2024-01-12T01:29:37.708Z,2.02
2024-01-12T01:30:42.108Z,2.00
2024-01-12T01:31:49.019Z,1.96
2024-01-12T01:32:53.320Z,1.97
2024-01-12T01:34:01.387Z,1.96
2024-01-12T01:35:07.680Z,1.96
2024-01-12T01:36:17.147Z,1.95
2024-01-12T01:37:21.408Z,1.94
2024-01-12T01:38:28.470Z,1.96
2024-01-12T01:39:32.930Z,1.93
2024-01-12T01:40:39.857Z,1.92
2024-01-12T01:41:44.383Z,1.91
2024-01-12T01:42:53.839Z,1.90
2024-01-12T01:43:58.014Z,1.87
2024-01-12T01:45:02.986Z,1.88
2024-01-12T01:46:12.662Z,1.89
2024-01-12T01:47:19.870Z,1.92
2024-01-12T01:48:27.270Z,1.92
2024-01-12T01:49:31.740Z,1.91
2024-01-12T01:50:40.485Z,1.92
2024-01-12T01:51:47.998Z,1.94
2024-01-12T01:52:55.346Z,1.94
2024-01-12T01:53:59.763Z,1.95
2024-01-12T01:55:07.645Z,1.96
2024-01-12T01:56:13.615Z,1.99
2024-01-12T01:57:20.583Z,1.97
2024-01-12T01:58:27.719Z,1.96
2024-01-12T01:59:36.668Z,1.96
2024-01-12T02:00:43.204Z,1.96
2024-01-12T02:01:50.103Z,1.96
2024-01-12T02:02:57.401Z,1.96
2024-01-12T02:04:05.917Z,1.94
2024-01-12T02:05:12.735Z,1.95
2024-01-12T02:06:22.884Z,1.94
2024-01-12T02:07:31.199Z,1.91
2024-01-12T02:08:35.422Z,1.90
2024-01-12T02:09:42.793Z,1.91
2024-01-12T02:10:47.153Z,1.93
2024-01-12T02:11:56.204Z,1.94
2024-01-12T02:13:00.786Z,1.94
2024-01-12T02:14:08.679Z,1.94
2024-01-12T02:15:13.745Z,1.96
2024-01-12T02:16:23.450Z,1.96
2024-01-12T02:17:28.420Z,1.95
2024-01-12T02:18:37.779Z,1.97
2024-01-12T02:19:42.150Z,1.98
2024-01-12T02:20:49.885Z,1.99
2024-01-12T02:21:56.715Z,2.01
2024-01-12T02:23:08.553Z,2.02
2024-01-12T02:24:13.777Z,2.05
2024-01-12T02:25:21.834Z,2.06
2024-01-12T02:26:27.178Z,2.08
2024-01-12T02:27:34.446Z,2.09
2024-01-12T02:28:38.822Z,2.09
2024-01-12T02:29:46.085Z,2.09
2024-01-12T02:30:50.741Z,2.10
2024-01-12T02:31:59.590Z,2.11
2024-01-12T02:33:07.344Z,2.13
2024-01-12T02:34:16.237Z,2.12
2024-01-12T02:35:21.367Z,2.11
2024-01-12T02:36:30.343Z,2.06
2024-01-12T02:37:38.338Z,2.03
2024-01-12T02:38:46.409Z,2.00
2024-01-12T02:39:50.585Z,1.97
2024-01-12T02:40:57.365Z,1.97
2024-01-12T02:42:01.669Z,1.93
2024-01-12T02:43:08.693Z,1.92
2024-01-12T02:44:12.854Z,1.88
2024-01-12T02:45:17.268Z,1.87
2024-01-12T02:46:24.744Z,1.85
2024-01-12T02:47:32.528Z,1.86
2024-01-12T02:48:39.422Z,1.87
2024-01-12T02:49:44.619Z,1.88
2024-01-12T02:50:51.511Z,1.89
2024-01-12T02:51:56.102Z,1.89
2024-01-12T02:53:09.128Z,1.89
2024-01-12T02:54:13.411Z,1.89
2024-01-12T02:55:23.225Z,1.89
2024-01-12T02:56:27.456Z,1.88
2024-01-12T02:57:34.548Z,1.89
2024-01-12T02:58:42.500Z,1.90
2024-01-12T02:59:49.409Z,1.90
2024-01-12T03:00:54.250Z,1.90
2024-01-12T03:02:01.127Z,1.91
2024-01-12T03:03:07.091Z,1.91
2024-01-12T03:04:15.295Z,1.92
2024-01-12T03:05:19.677Z,1.94
2024-01-12T03:06:26.734Z,1.94
2024-01-12T03:07:31.028Z,1.94
2024-01-12T03:08:40.455Z,1.90
2024-01-12T03:09:47.828Z,1.88
2024-01-12T03:10:56.408Z,1.86
2024-01-12T03:12:00.876Z,1.81
2024-01-12T03:13:08.246Z,1.82
2024-01-12T03:14:12.383Z,1.78
2024-01-12T03:15:19.522Z,1.74
2024-01-12T03:16:24.097Z,1.72
2024-01-12T03:17:33.283Z,1.72
2024-01-12T03:18:39.216Z,1.72
2024-01-12T03:19:48.979Z,1.69
2024-01-12T03:20:53.130Z,1.65
2024-01-12T03:21:59.955Z,1.61
2024-01-12T03:23:04.465Z,1.55
2024-01-12T03:24:13.871Z,1.55
2024-01-12T03:25:18.042Z,1.55
2024-01-12T03:26:24.416Z,1.52
2024-01-12T03:27:32.088Z,1.51
2024-01-12T03:28:36.938Z,1.52
2024-01-12T03:29:46.894Z,1.50
2024-01-12T03:30:53.175Z,1.49
2024-01-12T03:32:02.143Z,1.48
2024-01-12T03:33:08.429Z,1.51
2024-01-12T03:34:17.831Z,1.51
2024-01-12T03:35:26.211Z,1.53
2024-01-12T03:36:32.251Z,1.52
2024-01-12T03:37:36.468Z,1.48
2024-01-12T03:38:43.248Z,1.49
2024-01-12T03:39:50.006Z,1.51
2024-01-12T03:40:56.921Z,1.51
2024-01-12T03:42:04.212Z,1.52
2024-01-12T03:43:11.630Z,1.55
2024-01-12T03:44:16.003Z,1.56
2024-01-12T03:45:27.065Z,1.61
2024-01-12T03:46:31.301Z,1.54
2024-01-12T03:47:38.331Z,1.52
2024-01-12T03:48:43.026Z,1.56
2024-01-12T03:49:50.449Z,1.58
2024-01-12T03:50:54.746Z,1.55
2024-01-12T03:52:14.914Z,1.52
2024-01-12T03:53:20.864Z,1.53
2024-01-12T03:54:26.098Z,1.50
2024-01-12T03:55:35.732Z,1.47
2024-01-12T03:56:40.367Z,1.47
2024-01-12T03:57:47.118Z,1.45
2024-01-12T03:58:51.382Z,1.45
2024-01-12T03:59:58.284Z,1.45
2024-01-12T04:01:04.166Z,1.48
2024-01-12T04:02:08.478Z,1.49
2024-01-12T04:03:15.390Z,1.49
2024-01-12T04:04:19.640Z,1.49
2024-01-12T04:05:28.435Z,1.51
2024-01-12T04:06:32.852Z,1.51
2024-01-12T04:07:39.775Z,1.51
2024-01-12T04:08:49.919Z,1.51
2024-01-12T04:09:56.874Z,1.51
2024-01-12T04:11:07.121Z,1.48
2024-01-12T04:12:14.461Z,1.50
2024-01-12T04:13:18.762Z,1.50
2024-01-12T04:14:27.612Z,1.51
2024-01-12T04:15:31.897Z,1.53
2024-01-12T04:16:38.809Z,1.52
2024-01-12T04:17:43.007Z,1.52
2024-01-12T04:18:50.141Z,1.51
2024-01-12T04:19:54.621Z,1.49
2024-01-12T04:21:02.212Z,1.47
2024-01-12T04:22:07.979Z,1.48
2024-01-12T04:23:17.991Z,1.46
2024-01-12T04:24:22.255Z,1.46
2024-01-12T04:25:29.021Z,1.48
2024-01-12T04:26:35.947Z,1.49
2024-01-12T04:27:42.802Z,1.49
2024-01-12T04:28:47.257Z,1.48
2024-01-12T04:29:54.151Z,1.49
2024-01-12T04:31:01.202Z,1.52
2024-01-12T04:32:08.300Z,1.51
2024-01-12T04:33:16.014Z,1.47
2024-01-12T04:34:23.247Z,1.46
2024-01-12T04:35:27.495Z,1.43
2024-01-12T04:36:34.296Z,1.41
2024-01-12T04:37:39.566Z,1.45
2024-01-12T04:38:48.506Z,1.45
2024-01-12T04:39:53.193Z,1.46
2024-01-12T04:41:01.147Z,1.47
2024-01-12T04:42:09.343Z,1.49
2024-01-12T04:43:15.484Z,1.49
2024-01-12T04:44:22.834Z,1.47
2024-01-12T04:45:32.051Z,1.46
2024-01-12T04:46:36.360Z,1.48
2024-01-12T04:47:44.934Z,1.50
2024-01-12T04:48:52.254Z,1.53
2024-01-12T04:49:59.245Z,1.56
2024-01-12T04:51:03.545Z,1.59
2024-01-12T04:52:13.319Z,1.60
2024-01-12T04:53:17.573Z,1.63
2024-01-12T04:54:24.569Z,1.61
2024-01-12T04:55:34.085Z,1.57
2024-01-12T04:56:43.125Z,1.55
2024-01-12T04:57:52.059Z,1.57
2024-01-12T04:58:59.002Z,1.56
2024-01-12T05:00:08.104Z,1.59
2024-01-12T05:01:14.963Z,1.61
2024-01-12T05:02:19.180Z,1.61
2024-01-12T05:03:27.066Z,1.62
2024-01-12T05:04:31.260Z,1.64
2024-01-12T05:05:40.099Z,1.66
2024-01-12T05:06:45.649Z,1.70
2024-01-12T05:07:52.454Z,1.69
2024-01-12T05:08:59.230Z,1.69
2024-01-12T05:10:11.392Z,1.72
2024-01-12T05:11:16.058Z,1.73
2024-01-12T05:12:23.145Z,1.74
2024-01-12T05:13:31.237Z,1.74
2024-01-12T05:14:38.101Z,1.76
2024-01-12T05:15:42.422Z,1.79
2024-01-12T05:16:49.189Z,1.80
2024-01-12T05:17:53.776Z,1.77
2024-01-12T05:19:03.616Z,1.80
2024-01-12T05:20:09.765Z,1.83
2024-01-12T05:21:15.863Z,1.84
2024-01-12T05:22:20.231Z,1.86
2024-01-12T05:23:27.091Z,1.85
2024-01-12T05:24:31.310Z,1.85
2024-01-12T05:25:38.650Z,1.86
2024-01-12T05:26:42.844Z,1.87
2024-01-12T05:27:49.632Z,1.86
2024-01-12T05:28:57.525Z,1.87
2024-01-12T05:30:04.137Z,1.88
2024-01-12T05:31:13.498Z,1.88
2024-01-12T05:32:17.921Z,1.88
2024-01-12T05:33:24.919Z,1.88
2024-01-12T05:34:29.214Z,1.85
2024-01-12T05:35:35.283Z,1.84
2024-01-12T05:36:39.443Z,1.85
2024-01-12T05:37:46.232Z,1.84
2024-01-12T05:38:53.038Z,1.83
2024-01-12T05:40:00.308Z,1.82
2024-01-12T05:41:05.341Z,1.82
2024-01-12T05:42:12.205Z,1.81
2024-01-12T05:43:19.101Z,1.81
2024-01-12T05:44:28.673Z,1.81
2024-01-12T05:45:34.805Z,1.79
2024-01-12T05:46:43.931Z,1.77
2024-01-12T05:47:49.906Z,1.77
2024-01-12T05:48:56.042Z,1.77
2024-01-12T05:50:00.595Z,1.78
2024-01-12T05:51:10.325Z,1.79
2024-01-12T05:52:14.509Z,1.80
2024-01-12T05:53:27.439Z,1.81
2024-01-12T05:54:32.218Z,1.82
2024-01-12T05:55:39.164Z,1.82
2024-01-12T05:56:45.900Z,1.82
2024-01-12T05:57:53.230Z,1.82
2024-01-12T05:59:00.104Z,1.79
2024-01-12T06:00:10.428Z,1.77
2024-01-12T06:01:17.447Z,1.72
2024-01-12T06:02:21.698Z,1.67
2024-01-12T06:03:29.592Z,1.65
2024-01-12T06:04:33.870Z,1.65
2024-01-12T06:05:40.901Z,1.66
2024-01-12T06:06:46.244Z,1.66
2024-01-12T06:07:52.797Z,1.65
2024-01-12T06:08:59.301Z,1.67
2024-01-12T06:10:06.407Z,1.67
2024-01-12T06:11:12.780Z,1.66
2024-01-12T06:12:19.740Z,1.64
2024-01-12T06:13:23.788Z,1.64
2024-01-12T06:14:31.317Z,1.65
2024-01-12T06:15:38.704Z,1.65
2024-01-12T06:16:45.817Z,1.67
2024-01-12T06:17:53.279Z,1.64
2024-01-12T06:19:00.332Z,1.64
2024-01-12T06:20:05.788Z,1.58
2024-01-12T06:21:12.448Z,1.55
2024-01-12T06:22:18.101Z,1.56
2024-01-12T06:23:26.126Z,1.53
2024-01-12T06:24:31.619Z,1.55
2024-01-12T06:25:39.537Z,1.56
2024-01-12T06:26:43.961Z,1.55
2024-01-12T06:27:51.351Z,1.58
2024-01-12T06:28:55.543Z,1.53
2024-01-12T06:30:02.627Z,1.52
2024-01-12T06:31:09.607Z,1.52
2024-01-12T06:32:17.839Z,1.52
2024-01-12T06:33:22.225Z,1.52
2024-01-12T06:34:29.032Z,1.54
2024-01-12T06:35:34.691Z,1.49
2024-01-12T06:36:49.395Z,1.50
2024-01-12T06:37:53.757Z,1.53
2024-01-12T06:39:03.439Z,1.54
2024-01-12T06:40:11.909Z,1.55
2024-01-12T06:41:18.961Z,1.57
2024-01-12T06:42:23.196Z,1.56
2024-01-12T06:43:30.414Z,1.60
2024-01-12T06:44:34.733Z,1.56
2024-01-12T06:45:48.729Z,1.56
2024-01-12T06:46:56.088Z,1.58
2024-01-12T06:48:05.155Z,1.57
2024-01-12T06:49:09.764Z,1.58
2024-01-12T06:50:18.759Z,1.60
2024-01-12T06:51:25.878Z,1.61
2024-01-12T06:52:36.074Z,1.56
2024-01-12T06:53:40.635Z,1.52
2024-01-12T06:54:48.343Z,1.54
2024-01-12T06:55:52.523Z,1.50
2024-01-12T06:57:01.647Z,1.53
2024-01-12T06:58:06.145Z,1.51
2024-01-12T06:59:12.994Z,1.54
2024-01-12T07:00:18.997Z,1.56
2024-01-12T07:01:26.028Z,1.53
2024-01-12T07:02:33.022Z,1.53
2024-01-12T07:03:41.515Z,1.52
2024-01-12T07:04:45.664Z,1.49
2024-01-12T07:05:52.606Z,1.51
2024-01-12T07:06:59.269Z,1.51
2024-01-12T07:08:06.144Z,1.50
2024-01-12T07:09:16.397Z,1.51
2024-01-12T07:10:23.352Z,1.50
2024-01-12T07:11:27.958Z,1.51
2024-01-12T07:12:35.059Z,1.52
2024-01-12T07:13:39.340Z,1.54
2024-01-12T07:14:46.391Z,1.57
2024-01-12T07:15:50.630Z,1.56
2024-01-12T07:16:57.444Z,1.56
2024-01-12T07:18:05.140Z,1.57
2024-01-12T07:19:15.602Z,1.56
2024-01-12T07:20:21.627Z,1.56
2024-01-12T07:21:28.712Z,1.56
2024-01-12T07:22:33.159Z,1.58
2024-01-12T07:23:40.196Z,1.55
2024-01-12T07:24:44.930Z,1.58
2024-01-12T07:25:49.603Z,1.56
2024-01-12T07:26:56.603Z,1.61
2024-01-12T07:28:00.252Z,1.59
2024-01-12T07:29:09.083Z,1.57
2024-01-12T07:30:14.117Z,1.52
2024-01-12T07:31:21.227Z,1.49
2024-01-12T07:32:26.096Z,1.48
2024-01-12T07:33:39.308Z,1.49
2024-01-12T07:34:45.650Z,1.47
2024-01-12T07:35:53.449Z,1.48
2024-01-12T07:37:00.005Z,1.45
2024-01-12T07:38:07.083Z,1.46
2024-01-12T07:39:12.192Z,1.45
2024-01-12T07:40:19.575Z,1.45
2024-01-12T07:41:26.552Z,1.45
2024-01-12T07:42:34.507Z,1.46
2024-01-12T07:43:40.922Z,1.43
2024-01-12T07:44:48.760Z,1.42
2024-01-12T07:45:55.660Z,1.43
2024-01-12T07:47:04.496Z,1.46
2024-01-12T07:48:11.167Z,1.45
2024-01-12T07:49:28.794Z,1.44
2024-01-12T07:50:35.715Z,1.41
2024-01-12T07:51:49.613Z,1.39
2024-01-12T07:52:58.361Z,1.38
2024-01-12T07:54:05.797Z,1.30
2024-01-12T07:55:13.885Z,1.28
2024-01-12T07:56:21.079Z,1.29
2024-01-12T07:57:28.027Z,1.31
2024-01-12T07:58:36.856Z,1.20
2024-01-12T07:59:41.181Z,1.20
2024-01-12T08:00:52.275Z,1.20
2024-01-12T08:01:58.568Z,1.21
2024-01-12T08:03:07.497Z,1.17
2024-01-12T08:04:16.811Z,1.16
2024-01-12T08:05:29.511Z,1.17
2024-01-12T08:06:36.202Z,1.18
2024-01-12T08:07:45.695Z,1.22
2024-01-12T08:08:52.381Z,1.24
2024-01-12T08:09:59.279Z,1.26
2024-01-12T08:12:16.214Z,1.29
2024-01-12T08:13:23.319Z,1.27
2024-01-12T08:14:34.557Z,1.27
2024-01-12T08:15:42.023Z,1.30
2024-01-12T08:16:48.960Z,1.30
2024-01-12T08:17:55.510Z,1.34
2024-01-12T08:19:02.580Z,1.32
2024-01-12T08:20:12.942Z,1.34
2024-01-12T08:21:22.938Z,1.29
2024-01-12T08:22:27.351Z,1.32
2024-01-12T08:23:34.892Z,1.30
2024-01-12T08:24:41.152Z,1.33
2024-01-12T08:25:51.287Z,1.33
2024-01-12T08:26:55.687Z,1.33
2024-01-12T08:28:02.559Z,1.30
2024-01-12T08:29:09.370Z,1.33
2024-01-12T08:30:16.867Z,1.33
2024-01-12T08:31:26.340Z,1.36
2024-01-12T08:32:33.445Z,1.33
2024-01-12T08:33:40.168Z,1.26
2024-01-12T08:34:49.203Z,1.26
2024-01-12T08:35:53.817Z,1.30
2024-01-12T08:37:03.737Z,1.29
2024-01-12T08:38:10.383Z,1.32
2024-01-12T08:39:18.705Z,1.34
2024-01-12T08:40:22.890Z,1.35
2024-01-12T08:41:32.393Z,1.35
2024-01-12T08:42:38.889Z,1.27
2024-01-12T08:43:49.588Z,1.29
2024-01-12T08:44:53.884Z,1.29
2024-01-12T08:46:03.708Z,1.31
2024-01-12T08:47:08.002Z,1.30
2024-01-12T08:48:15.220Z,1.32
2024-01-12T08:49:19.772Z,1.34
2024-01-12T08:50:26.688Z,1.36
2024-01-12T08:51:31.268Z,1.36
2024-01-12T08:52:40.878Z,1.35
2024-01-12T08:53:45.176Z,1.33
2024-01-12T08:54:52.123Z,1.34
2024-01-12T08:55:58.535Z,1.35
2024-01-12T08:57:05.970Z,1.35
2024-01-12T08:58:12.706Z,1.41
2024-01-12T08:59:22.341Z,1.41
2024-01-12T09:00:26.941Z,1.40
2024-01-12T09:01:36.802Z,1.40
2024-01-12T09:02:41.203Z,1.40
2024-01-12T09:03:51.384Z,1.39
2024-01-12T09:04:58.700Z,1.35
2024-01-12T09:06:06.044Z,1.36
2024-01-12T09:07:10.520Z,1.35
2024-01-12T09:08:22.615Z,1.35
2024-01-12T09:09:27.317Z,1.34
2024-01-12T09:10:34.184Z,1.37
2024-01-12T09:11:38.143Z,1.36
2024-01-12T09:12:47.651Z,1.36
2024-01-12T09:13:53.263Z,1.26
2024-01-12T09:15:00.510Z,1.29
2024-01-12T09:16:05.624Z,1.32
2024-01-12T09:17:14.787Z,1.35
2024-01-12T09:18:23.933Z,1.37
2024-01-12T09:19:32.112Z,1.35
2024-01-12T09:20:37.806Z,1.34
2024-01-12T09:21:45.407Z,1.31
2024-01-12T09:22:52.055Z,1.27
2024-01-12T09:24:03.897Z,1.31
2024-01-12T09:25:11.378Z,1.31
2024-01-12T09:26:18.237Z,1.34
2024-01-12T09:27:22.918Z,1.35
2024-01-12T09:28:29.739Z,1.38
2024-01-12T09:29:38.202Z,1.39
2024-01-12T09:30:45.816Z,1.40
2024-01-12T09:31:51.080Z,1.41
2024-01-12T09:32:58.083Z,1.43
2024-01-12T09:34:03.056Z,1.40
2024-01-12T09:35:10.559Z,1.38
2024-01-12T09:36:15.261Z,1.37
2024-01-12T09:37:22.746Z,1.32
2024-01-12T09:38:27.324Z,1.21
2024-01-12T09:39:37.058Z,1.25
2024-01-12T09:40:42.110Z,1.27
2024-01-12T09:42:00.379Z,1.32
2024-01-12T09:43:13.782Z,1.35
2024-01-12T09:44:24.668Z,1.38
2024-01-12T09:45:37.991Z,1.38
2024-01-12T09:46:58.202Z,1.39
2024-01-12T09:48:05.231Z,1.42
2024-01-12T09:49:11.726Z,1.44
2024-01-12T09:50:23.619Z,1.42
2024-01-12T09:51:31.893Z,1.43
2024-01-12T09:52:39.259Z,1.40
2024-01-12T09:53:46.784Z,1.41
2024-01-12T09:54:55.667Z,1.38
2024-01-12T09:56:07.817Z,1.37
2024-01-12T09:57:14.175Z,1.42
2024-01-12T09:58:23.732Z,1.42
2024-01-12T09:59:31.014Z,1.44
2024-01-12T10:00:44.723Z,1.47
2024-01-12T10:01:50.028Z,1.46
2024-01-12T10:02:57.529Z,1.47
2024-01-12T10:04:01.928Z,1.45
2024-01-12T10:05:11.029Z,1.46
2024-01-12T10:06:16.183Z,1.46
2024-01-12T10:07:24.206Z,1.46
2024-01-12T10:08:37.030Z,1.49
2024-01-12T10:09:47.355Z,1.50
2024-01-12T10:10:54.296Z,1.47
2024-01-12T10:12:01.426Z,1.50
2024-01-12T10:13:06.091Z,1.47
2024-01-12T10:14:13.072Z,1.48
2024-01-12T10:15:19.562Z,1.50
2024-01-12T10:16:30.589Z,1.51
2024-01-12T10:17:36.569Z,1.51
2024-01-12T10:18:44.033Z,1.54
2024-01-12T10:19:48.122Z,1.53
2024-01-12T10:20:56.736Z,1.53
2024-01-12T10:22:04.975Z,1.52
2024-01-12T10:23:12.557Z,1.43
2024-01-12T10:24:19.125Z,1.38
2024-01-12T10:25:26.484Z,1.41
2024-01-12T10:26:35.654Z,1.45
2024-01-12T10:27:42.840Z,1.45
2024-01-12T10:28:47.266Z,1.38
2024-01-12T10:29:55.884Z,1.45
2024-01-12T10:31:07.213Z,1.38
2024-01-12T10:32:15.880Z,1.38
2024-01-12T10:33:20.273Z,1.40
2024-01-12T10:34:35.653Z,1.36
2024-01-12T10:35:40.853Z,1.36
2024-01-12T10:36:53.303Z,1.36
2024-01-12T10:38:04.016Z,1.37
2024-01-12T10:39:17.208Z,1.29
2024-01-12T10:40:21.816Z,1.10
2024-01-12T10:41:31.343Z,1.10
2024-01-12T10:42:44.356Z,1.09
2024-01-12T10:43:58.778Z,1.12
2024-01-12T10:45:11.958Z,1.17
2024-01-12T10:46:33.879Z,1.20
2024-01-12T10:47:49.060Z,1.22
2024-01-12T10:49:09.561Z,1.26
2024-01-12T10:50:19.660Z,1.27
2024-01-12T10:51:39.416Z,1.30
2024-01-12T10:53:06.068Z,1.34
2024-01-12T10:54:28.266Z,1.36
2024-01-12T10:55:36.193Z,1.35
2024-01-12T10:56:46.544Z,1.37
2024-01-12T10:57:56.706Z,1.36
2024-01-12T10:59:08.635Z,1.31
2024-01-12T11:00:16.683Z,1.27
2024-01-12T11:01:24.609Z,1.26
2024-01-12T11:02:34.094Z,1.27
2024-01-12T11:03:47.769Z,1.26
2024-01-12T11:04:52.661Z,1.29
2024-01-12T11:06:04.100Z,1.31
2024-01-12T11:07:10.506Z,1.30
2024-01-12T11:08:22.037Z,1.25
2024-01-12T11:09:26.967Z,1.21
2024-01-12T11:10:42.351Z,1.16
2024-01-12T11:11:57.966Z,1.14
2024-01-12T11:13:08.891Z,1.16
2024-01-12T11:14:16.341Z,1.13
2024-01-12T11:15:24.047Z,1.14
2024-01-12T11:16:30.576Z,0.89
2024-01-12T11:17:40.522Z,0.82
2024-01-12T11:18:46.536Z,0.83
2024-01-12T11:19:53.890Z,0.87
2024-01-12T11:21:06.970Z,0.92
2024-01-12T11:22:15.480Z,0.92
2024-01-12T11:23:27.875Z,0.93
2024-01-12T11:24:35.874Z,0.93
2024-01-12T11:25:44.758Z,0.97
2024-01-12T11:26:56.509Z,1.02
2024-01-12T11:28:09.472Z,1.04
2024-01-12T11:29:18.774Z,0.99
2024-01-12T11:30:26.638Z,1.00
2024-01-12T11:31:38.634Z,1.01
2024-01-12T11:32:44.911Z,1.04
2024-01-12T11:33:53.015Z,1.05
2024-01-12T11:35:13.891Z,1.00
2024-01-12T11:36:21.440Z,1.01
2024-01-12T11:37:31.435Z,0.96
2024-01-12T11:38:44.646Z,0.87
2024-01-12T11:39:57.218Z,0.84
2024-01-12T11:41:17.025Z,0.86
2024-01-12T11:42:22.177Z,0.87
2024-01-12T11:43:34.831Z,0.90
2024-01-12T11:44:39.478Z,0.84
2024-01-12T11:45:50.094Z,0.87
2024-01-12T11:46:55.501Z,0.82
2024-01-12T11:48:06.925Z,0.81
2024-01-12T11:49:12.152Z,0.82
2024-01-12T11:50:21.325Z,0.81
2024-01-12T11:51:31.997Z,0.81
2024-01-12T11:52:40.763Z,0.82
2024-01-12T11:53:50.955Z,0.79
2024-01-12T11:54:59.310Z,0.76
2024-01-12T11:56:04.703Z,0.79
2024-01-12T11:57:13.448Z,0.82
2024-01-12T11:58:20.935Z,0.82
2024-01-12T11:59:28.313Z,0.83
2024-01-12T12:00:38.244Z,0.84
2024-01-12T12:01:42.529Z,0.84
2024-01-12T12:02:55.660Z,0.74
2024-01-12T12:04:02.754Z,0.78
2024-01-12T12:05:12.028Z,0.75
2024-01-12T12:06:17.959Z,0.69
2024-01-12T12:07:29.872Z,0.68
2024-01-12T12:08:37.124Z,0.75
2024-01-12T12:09:45.046Z,0.80
2024-01-12T12:10:49.349Z,0.85
2024-01-12T12:11:56.298Z,0.86
2024-01-12T12:13:01.884Z,0.81
2024-01-12T12:14:11.265Z,0.77
2024-01-12T12:15:19.274Z,0.81
2024-01-12T12:16:26.338Z,0.82
2024-01-12T12:17:36.157Z,0.89
2024-01-12T12:18:46.920Z,0.94
2024-01-12T12:19:58.180Z,0.94
2024-01-12T12:21:10.360Z,0.91
2024-01-12T12:22:17.248Z,0.90
2024-01-12T12:23:29.191Z,0.90
2024-01-12T12:24:35.769Z,0.89
2024-01-12T12:25:43.157Z,0.90
2024-01-12T12:26:47.526Z,0.86
2024-01-12T12:27:56.961Z,0.84
2024-01-12T12:29:06.772Z,0.74
2024-01-12T12:30:21.758Z,0.73
2024-01-12T12:31:28.661Z,0.71
2024-01-12T12:32:36.003Z,0.72
2024-01-12T12:33:45.279Z,0.75
2024-01-12T12:34:55.233Z,0.74
2024-01-12T12:36:09.797Z,0.66
2024-01-12T12:37:22.484Z,0.71
2024-01-12T12:38:27.269Z,0.70
2024-01-12T12:39:32.500Z,0.71
2024-01-12T12:40:40.202Z,0.66
2024-01-12T12:41:44.679Z,0.71
2024-01-12T12:42:52.661Z,0.73
2024-01-12T12:43:56.845Z,0.75
2024-01-12T12:45:07.194Z,0.75
2024-01-12T12:46:13.753Z,0.76
2024-01-12T12:47:22.467Z,0.80
2024-01-12T12:48:28.294Z,0.77
2024-01-12T12:49:43.861Z,0.75
2024-01-12T12:50:48.399Z,0.76
2024-01-12T12:51:56.853Z,0.79
2024-01-12T12:53:01.124Z,0.85
2024-01-12T12:54:09.160Z,0.86
2024-01-12T12:55:14.857Z,0.89
2024-01-12T12:56:21.740Z,0.94
2024-01-12T12:57:26.170Z,0.96
2024-01-12T12:58:34.071Z,0.97
2024-01-12T12:59:39.814Z,0.98
2024-01-12T13:00:46.832Z,0.89
2024-01-12T13:01:56.704Z,0.93
2024-01-12T13:03:04.965Z,0.95
2024-01-12T13:04:11.010Z,0.97
2024-01-12T13:05:23.578Z,0.99
2024-01-12T13:06:35.256Z,0.99
2024-01-12T13:07:44.470Z,0.95
2024-01-12T13:08:48.805Z,0.94
2024-01-12T13:09:59.248Z,0.92
2024-01-12T13:11:06.537Z,0.96
2024-01-12T13:12:12.384Z,0.90
2024-01-12T13:13:19.040Z,0.90
2024-01-12T13:14:26.935Z,0.94
2024-01-12T13:15:35.602Z,0.94
2024-01-12T13:16:45.192Z,0.91
2024-01-12T13:17:54.531Z,0.94
2024-01-12T13:19:14.024Z,0.88
2024-01-12T13:20:23.623Z,0.92
2024-01-12T13:21:34.162Z,0.95
2024-01-12T13:22:39.022Z,0.96
2024-01-12T13:23:47.366Z,0.96
2024-01-12T13:24:51.958Z,0.86
2024-01-12T13:25:59.037Z,0.85
2024-01-12T13:27:05.702Z,0.84
2024-01-12T13:28:13.054Z,0.83
2024-01-12T13:29:17.392Z,0.86
2024-01-12T13:30:26.778Z,0.83
2024-01-12T13:31:31.124Z,0.84
2024-01-12T13:32:37.461Z,0.80
2024-01-12T13:33:46.855Z,0.82
2024-01-12T13:34:55.802Z,0.78
2024-01-12T13:36:00.367Z,0.74
2024-01-12T13:37:07.376Z,0.73
2024-01-12T13:38:11.621Z,0.73
2024-01-12T13:39:21.027Z,0.76
2024-01-12T13:40:25.212Z,0.73
2024-01-12T13:41:32.390Z,0.70
2024-01-12T13:42:36.718Z,0.69
2024-01-12T13:43:43.537Z,0.69
2024-01-12T13:44:47.957Z,0.69
2024-01-12T13:45:56.965Z,0.65
2024-01-12T13:47:01.317Z,0.65
2024-01-12T13:48:16.102Z,0.62
2024-01-12T13:49:23.748Z,0.65
2024-01-12T13:50:30.943Z,0.65
2024-01-12T13:51:35.666Z,0.65
2024-01-12T13:52:45.034Z,0.63
2024-01-12T13:53:49.628Z,0.62
2024-01-12T13:54:57.716Z,0.64
2024-01-12T13:56:04.906Z,0.60
2024-01-12T13:57:11.851Z,0.61
2024-01-12T13:58:17.550Z,0.61
2024-01-12T13:59:21.852Z,0.57
2024-01-12T14:00:28.821Z,0.56
2024-01-12T14:01:35.011Z,0.54
2024-01-12T14:02:42.817Z,0.49
2024-01-12T14:03:51.157Z,0.50
2024-01-12T14:05:10.265Z,0.51
2024-01-12T14:06:21.793Z,0.56
2024-01-12T14:07:30.242Z,0.57
2024-01-12T14:08:37.253Z,0.56
2024-01-12T14:09:44.434Z,0.57
2024-01-12T14:10:52.791Z,0.56
2024-01-12T14:12:00.683Z,0.57
2024-01-12T14:13:04.982Z,0.51
2024-01-12T14:14:13.352Z,0.45
2024-01-12T14:15:23.248Z,0.47
2024-01-12T14:16:33.219Z,0.48
2024-01-12T14:17:37.716Z,0.51
2024-01-12T14:18:44.376Z,0.46
2024-01-12T14:19:50.291Z,0.42
2024-01-12T14:21:02.807Z,0.47
2024-01-12T14:22:06.838Z,0.45
2024-01-12T14:23:19.208Z,0.46
2024-01-12T14:24:23.602Z,0.47
2024-01-12T14:25:31.834Z,0.40
2024-01-12T14:26:36.622Z,0.37
2024-01-12T14:27:44.778Z,0.37
2024-01-12T14:28:49.142Z,0.41
2024-01-12T14:29:56.974Z,0.44
2024-01-12T14:31:04.699Z,0.39
2024-01-12T14:32:14.103Z,0.40
2024-01-12T14:33:19.313Z,0.35
2024-01-12T14:34:27.108Z,0.39
2024-01-12T14:35:34.273Z,0.36
2024-01-12T14:36:49.377Z,0.35
2024-01-12T14:37:54.468Z,0.36
2024-01-12T14:39:02.688Z,0.38
2024-01-12T14:40:09.856Z,0.21
2024-01-12T14:41:16.665Z,0.17
2024-01-12T14:42:22.196Z,0.18
2024-01-12T14:43:29.343Z,0.27
2024-01-12T14:44:33.761Z,0.35
2024-01-12T14:45:43.255Z,0.39
2024-01-12T14:46:48.519Z,0.44
2024-01-12T14:47:56.146Z,0.47
2024-01-12T14:49:02.976Z,0.45
2024-01-12T14:50:12.099Z,0.49
2024-01-12T14:51:17.258Z,0.51
2024-01-12T14:52:27.542Z,0.57
2024-01-12T14:53:38.615Z,0.47
2024-01-12T14:54:51.293Z,0.49
2024-01-12T14:55:58.217Z,0.55
2024-01-12T14:57:05.352Z,0.55
2024-01-12T14:58:10.306Z,0.59
2024-01-12T14:59:18.313Z,0.57
2024-01-12T15:00:22.946Z,0.55